sensor_id;sensor_type;location;lat;lon;timestamp;P1;durP1;ratioP1;P2;durP2;ratioP2
38196;SDS011;26543;51.976;4.616;2022-10-18T00:00:17;6.25;;;3.72;;
38196;SDS011;26543;51.976;4.616;2022-10-18T00:02:42;8.85;;;5.43;;
38196;SDS011;26543;51.976;4.616;2022-10-18T00:05:08;4.72;;;3.45;;
38196;SDS011;26543;51.976;4.616;2022-10-18T00:07:33;5.25;;;3.35;;
38196;SDS011;26543;51.976;4.616;2022-10-18T00:09:59;6.07;;;4.00;;
38196;SDS011;26543;51.976;4.616;2022-10-18T00:12:24;5.70;;;3.83;;
38196;SDS011;26543;51.976;4.616;2022-10-18T00:14:49;5.28;;;3.80;;
38196;SDS011;26543;51.976;4.616;2022-10-18T00:17:15;9.63;;;3.60;;
38196;SDS011;26543;51.976;4.616;2022-10-18T00:19:40;5.43;;;3.72;;
38196;SDS011;26543;51.976;4.616;2022-10-18T00:22:06;5.97;;;4.45;;
38196;SDS011;26543;51.976;4.616;2022-10-18T00:24:31;5.22;;;3.40;;
38196;SDS011;26543;51.976;4.616;2022-10-18T00:26:56;4.93;;;3.78;;
38196;SDS011;26543;51.976;4.616;2022-10-18T00:29:22;4.70;;;3.60;;
38196;SDS011;26543;51.976;4.616;2022-10-18T00:31:47;5.80;;;3.45;;
38196;SDS011;26543;51.976;4.616;2022-10-18T00:34:13;5.30;;;4.03;;
38196;SDS011;26543;51.976;4.616;2022-10-18T00:36:40;5.93;;;3.85;;
38196;SDS011;26543;51.976;4.616;2022-10-18T00:39:07;4.78;;;3.63;;
38196;SDS011;26543;51.976;4.616;2022-10-18T00:41:36;8.30;;;4.63;;
38196;SDS011;26543;51.976;4.616;2022-10-18T00:44:04;5.90;;;4.13;;
38196;SDS011;26543;51.976;4.616;2022-10-18T00:46:39;7.05;;;4.40;;
38196;SDS011;26543;51.976;4.616;2022-10-18T00:49:10;5.10;;;3.28;;
38196;SDS011;26543;51.976;4.616;2022-10-18T00:54:06;7.47;;;3.60;;
38196;SDS011;26543;51.976;4.616;2022-10-18T00:56:32;6.05;;;4.38;;
38196;SDS011;26543;51.976;4.616;2022-10-18T00:58:58;6.60;;;4.65;;
38196;SDS011;26543;51.976;4.616;2022-10-18T01:01:23;5.53;;;3.45;;
38196;SDS011;26543;51.976;4.616;2022-10-18T01:03:49;6.32;;;4.30;;
38196;SDS011;26543;51.976;4.616;2022-10-18T01:06:16;6.28;;;4.63;;
38196;SDS011;26543;51.976;4.616;2022-10-18T01:08:49;6.95;;;4.93;;
38196;SDS011;26543;51.976;4.616;2022-10-18T01:17:26;4.60;;;3.63;;
38196;SDS011;26543;51.976;4.616;2022-10-18T01:20:02;6.55;;;3.95;;
38196;SDS011;26543;51.976;4.616;2022-10-18T01:22:43;4.93;;;3.80;;
38196;SDS011;26543;51.976;4.616;2022-10-18T01:27:44;6.70;;;3.25;;
38196;SDS011;26543;51.976;4.616;2022-10-18T01:30:25;6.80;;;4.22;;
38196;SDS011;26543;51.976;4.616;2022-10-18T01:32:57;5.55;;;3.53;;
38196;SDS011;26543;51.976;4.616;2022-10-18T01:35:30;5.13;;;4.07;;
38196;SDS011;26543;51.976;4.616;2022-10-18T01:38:02;6.75;;;4.43;;
38196;SDS011;26543;51.976;4.616;2022-10-18T01:42:57;6.13;;;4.78;;
38196;SDS011;26543;51.976;4.616;2022-10-18T01:45:23;5.28;;;3.58;;
38196;SDS011;26543;51.976;4.616;2022-10-18T01:47:50;6.35;;;4.18;;
38196;SDS011;26543;51.976;4.616;2022-10-18T01:50:26;5.70;;;3.90;;
38196;SDS011;26543;51.976;4.616;2022-10-18T01:52:53;9.50;;;4.85;;
38196;SDS011;26543;51.976;4.616;2022-10-18T01:55:19;5.78;;;3.42;;
38196;SDS011;26543;51.976;4.616;2022-10-18T01:58:03;8.38;;;3.85;;
38196;SDS011;26543;51.976;4.616;2022-10-18T02:00:40;5.07;;;3.75;;
38196;SDS011;26543;51.976;4.616;2022-10-18T02:08:28;5.72;;;4.05;;
38196;SDS011;26543;51.976;4.616;2022-10-18T02:11:18;7.18;;;3.58;;
38196;SDS011;26543;51.976;4.616;2022-10-18T02:13:51;3.92;;;3.13;;
38196;SDS011;26543;51.976;4.616;2022-10-18T02:21:50;5.13;;;3.78;;
38196;SDS011;26543;51.976;4.616;2022-10-18T02:24:18;5.80;;;3.95;;
38196;SDS011;26543;51.976;4.616;2022-10-18T02:26:47;4.45;;;3.70;;
38196;SDS011;26543;51.976;4.616;2022-10-18T02:29:12;6.28;;;3.28;;
38196;SDS011;26543;51.976;4.616;2022-10-18T02:34:21;6.10;;;4.15;;
38196;SDS011;26543;51.976;4.616;2022-10-18T02:39:25;4.20;;;2.95;;
38196;SDS011;26543;51.976;4.616;2022-10-18T02:41:56;4.50;;;3.33;;
38196;SDS011;26543;51.976;4.616;2022-10-18T02:44:22;4.90;;;2.70;;
38196;SDS011;26543;51.976;4.616;2022-10-18T02:46:47;5.90;;;3.97;;
38196;SDS011;26543;51.976;4.616;2022-10-18T02:49:13;6.00;;;3.78;;
38196;SDS011;26543;51.976;4.616;2022-10-18T02:51:39;6.97;;;3.45;;
38196;SDS011;26543;51.976;4.616;2022-10-18T02:54:04;7.85;;;3.72;;
38196;SDS011;26543;51.976;4.616;2022-10-18T02:56:30;6.95;;;4.90;;
38196;SDS011;26543;51.976;4.616;2022-10-18T02:58:55;5.82;;;3.17;;
38196;SDS011;26543;51.976;4.616;2022-10-18T03:01:21;6.30;;;3.58;;
38196;SDS011;26543;51.976;4.616;2022-10-18T03:03:46;4.82;;;3.33;;
38196;SDS011;26543;51.976;4.616;2022-10-18T03:06:12;5.55;;;3.45;;
38196;SDS011;26543;51.976;4.616;2022-10-18T03:08:38;6.25;;;4.03;;
38196;SDS011;26543;51.976;4.616;2022-10-18T03:11:03;4.72;;;3.28;;
38196;SDS011;26543;51.976;4.616;2022-10-18T03:13:29;3.80;;;2.92;;
38196;SDS011;26543;51.976;4.616;2022-10-18T03:15:54;4.97;;;3.50;;
38196;SDS011;26543;51.976;4.616;2022-10-18T03:18:19;4.38;;;2.70;;
38196;SDS011;26543;51.976;4.616;2022-10-18T03:20:45;5.30;;;3.30;;
38196;SDS011;26543;51.976;4.616;2022-10-18T03:23:10;3.92;;;2.92;;
38196;SDS011;26543;51.976;4.616;2022-10-18T03:25:36;4.88;;;3.20;;
38196;SDS011;26543;51.976;4.616;2022-10-18T03:28:01;3.45;;;2.88;;
38196;SDS011;26543;51.976;4.616;2022-10-18T03:30:27;3.90;;;3.25;;
38196;SDS011;26543;51.976;4.616;2022-10-18T03:32:52;4.95;;;2.80;;
38196;SDS011;26543;51.976;4.616;2022-10-18T03:35:20;7.28;;;3.80;;
38196;SDS011;26543;51.976;4.616;2022-10-18T03:37:46;5.38;;;3.72;;
38196;SDS011;26543;51.976;4.616;2022-10-18T03:40:12;4.18;;;2.83;;
38196;SDS011;26543;51.976;4.616;2022-10-18T03:42:37;3.13;;;2.72;;
38196;SDS011;26543;51.976;4.616;2022-10-18T03:45:05;4.18;;;2.80;;
38196;SDS011;26543;51.976;4.616;2022-10-18T03:47:31;6.68;;;2.80;;
38196;SDS011;26543;51.976;4.616;2022-10-18T03:49:57;4.40;;;2.85;;
38196;SDS011;26543;51.976;4.616;2022-10-18T03:52:23;4.47;;;3.20;;
38196;SDS011;26543;51.976;4.616;2022-10-18T03:54:48;4.65;;;2.88;;
38196;SDS011;26543;51.976;4.616;2022-10-18T03:57:14;3.47;;;2.75;;
38196;SDS011;26543;51.976;4.616;2022-10-18T03:59:39;5.13;;;2.63;;
38196;SDS011;26543;51.976;4.616;2022-10-18T04:02:04;5.28;;;3.20;;
38196;SDS011;26543;51.976;4.616;2022-10-18T04:04:30;3.47;;;2.67;;
38196;SDS011;26543;51.976;4.616;2022-10-18T04:06:55;3.95;;;2.63;;
38196;SDS011;26543;51.976;4.616;2022-10-18T04:09:20;5.10;;;2.67;;
38196;SDS011;26543;51.976;4.616;2022-10-18T04:11:48;3.22;;;2.55;;
38196;SDS011;26543;51.976;4.616;2022-10-18T04:14:14;5.22;;;2.53;;
38196;SDS011;26543;51.976;4.616;2022-10-18T04:16:40;8.40;;;2.83;;
38196;SDS011;26543;51.976;4.616;2022-10-18T04:19:05;5.38;;;2.95;;
38196;SDS011;26543;51.976;4.616;2022-10-18T04:21:30;4.63;;;2.95;;
38196;SDS011;26543;51.976;4.616;2022-10-18T04:23:56;3.53;;;2.47;;
38196;SDS011;26543;51.976;4.616;2022-10-18T04:26:21;3.90;;;2.72;;
38196;SDS011;26543;51.976;4.616;2022-10-18T04:28:47;2.80;;;2.20;;
38196;SDS011;26543;51.976;4.616;2022-10-18T04:31:12;4.32;;;2.53;;
38196;SDS011;26543;51.976;4.616;2022-10-18T04:33:37;4.25;;;2.78;;
38196;SDS011;26543;51.976;4.616;2022-10-18T04:36:03;4.45;;;2.28;;
38196;SDS011;26543;51.976;4.616;2022-10-18T04:38:29;4.43;;;2.47;;
38196;SDS011;26543;51.976;4.616;2022-10-18T04:40:54;4.95;;;3.03;;
38196;SDS011;26543;51.976;4.616;2022-10-18T04:43:20;4.35;;;2.50;;
38196;SDS011;26543;51.976;4.616;2022-10-18T04:45:45;4.97;;;2.88;;
38196;SDS011;26543;51.976;4.616;2022-10-18T04:48:12;4.03;;;2.22;;
38196;SDS011;26543;51.976;4.616;2022-10-18T04:50:38;5.10;;;2.85;;
38196;SDS011;26543;51.976;4.616;2022-10-18T04:53:03;4.53;;;3.45;;
38196;SDS011;26543;51.976;4.616;2022-10-18T04:55:29;4.05;;;2.75;;
38196;SDS011;26543;51.976;4.616;2022-10-18T04:57:54;4.78;;;3.38;;
38196;SDS011;26543;51.976;4.616;2022-10-18T05:00:21;4.90;;;3.20;;
38196;SDS011;26543;51.976;4.616;2022-10-18T05:02:46;2.95;;;2.53;;
38196;SDS011;26543;51.976;4.616;2022-10-18T05:05:11;4.22;;;2.95;;
38196;SDS011;26543;51.976;4.616;2022-10-18T05:07:37;5.60;;;2.38;;
38196;SDS011;26543;51.976;4.616;2022-10-18T05:10:02;7.85;;;3.67;;
38196;SDS011;26543;51.976;4.616;2022-10-18T05:12:28;9.25;;;3.65;;
38196;SDS011;26543;51.976;4.616;2022-10-18T05:14:53;5.72;;;3.38;;
38196;SDS011;26543;51.976;4.616;2022-10-18T05:17:19;4.50;;;3.35;;
38196;SDS011;26543;51.976;4.616;2022-10-18T05:19:44;5.90;;;3.97;;
38196;SDS011;26543;51.976;4.616;2022-10-18T05:22:10;7.25;;;4.15;;
38196;SDS011;26543;51.976;4.616;2022-10-18T05:24:35;6.35;;;4.25;;
38196;SDS011;26543;51.976;4.616;2022-10-18T05:27:00;5.85;;;4.20;;
38196;SDS011;26543;51.976;4.616;2022-10-18T05:29:26;7.00;;;3.30;;
38196;SDS011;26543;51.976;4.616;2022-10-18T05:31:51;7.53;;;3.63;;
38196;SDS011;26543;51.976;4.616;2022-10-18T05:34:16;5.97;;;3.15;;
38196;SDS011;26543;51.976;4.616;2022-10-18T05:36:42;5.55;;;3.25;;
38196;SDS011;26543;51.976;4.616;2022-10-18T05:39:08;5.63;;;3.50;;
38196;SDS011;26543;51.976;4.616;2022-10-18T05:41:33;3.95;;;2.75;;
38196;SDS011;26543;51.976;4.616;2022-10-18T05:44:03;6.65;;;4.03;;
38196;SDS011;26543;51.976;4.616;2022-10-18T05:46:30;6.82;;;3.03;;
38196;SDS011;26543;51.976;4.616;2022-10-18T05:48:56;4.30;;;3.08;;
38196;SDS011;26543;51.976;4.616;2022-10-18T05:51:21;4.03;;;2.95;;
38196;SDS011;26543;51.976;4.616;2022-10-18T05:53:47;4.43;;;2.92;;
38196;SDS011;26543;51.976;4.616;2022-10-18T05:56:12;7.20;;;3.28;;
38196;SDS011;26543;51.976;4.616;2022-10-18T05:58:39;4.70;;;2.85;;
38196;SDS011;26543;51.976;4.616;2022-10-18T06:01:05;6.10;;;3.78;;
38196;SDS011;26543;51.976;4.616;2022-10-18T06:03:32;4.75;;;3.20;;
38196;SDS011;26543;51.976;4.616;2022-10-18T06:06:15;5.38;;;3.58;;
38196;SDS011;26543;51.976;4.616;2022-10-18T06:08:41;3.80;;;2.88;;
38196;SDS011;26543;51.976;4.616;2022-10-18T06:11:08;3.70;;;2.80;;
38196;SDS011;26543;51.976;4.616;2022-10-18T06:13:38;3.35;;;2.38;;
38196;SDS011;26543;51.976;4.616;2022-10-18T06:16:10;3.83;;;2.88;;
38196;SDS011;26543;51.976;4.616;2022-10-18T06:18:37;5.43;;;2.85;;
38196;SDS011;26543;51.976;4.616;2022-10-18T06:21:02;4.55;;;2.90;;
38196;SDS011;26543;51.976;4.616;2022-10-18T06:23:28;6.50;;;2.72;;
38196;SDS011;26543;51.976;4.616;2022-10-18T06:25:57;6.90;;;3.17;;
38196;SDS011;26543;51.976;4.616;2022-10-18T06:28:24;4.10;;;2.95;;
38196;SDS011;26543;51.976;4.616;2022-10-18T06:30:50;5.03;;;3.63;;
38196;SDS011;26543;51.976;4.616;2022-10-18T06:33:15;5.53;;;3.08;;
38196;SDS011;26543;51.976;4.616;2022-10-18T06:35:41;8.13;;;3.65;;
38196;SDS011;26543;51.976;4.616;2022-10-18T06:38:06;8.05;;;4.13;;
38196;SDS011;26543;51.976;4.616;2022-10-18T06:40:31;4.03;;;3.35;;
38196;SDS011;26543;51.976;4.616;2022-10-18T06:43:02;4.22;;;3.28;;
38196;SDS011;26543;51.976;4.616;2022-10-18T06:45:31;8.97;;;5.37;;
38196;SDS011;26543;51.976;4.616;2022-10-18T06:47:59;8.32;;;4.85;;
38196;SDS011;26543;51.976;4.616;2022-10-18T06:50:24;5.78;;;3.90;;
38196;SDS011;26543;51.976;4.616;2022-10-18T06:52:53;4.30;;;3.35;;
38196;SDS011;26543;51.976;4.616;2022-10-18T06:55:18;7.28;;;4.68;;
38196;SDS011;26543;51.976;4.616;2022-10-18T06:57:43;5.15;;;3.65;;
38196;SDS011;26543;51.976;4.616;2022-10-18T07:00:09;5.53;;;3.92;;
38196;SDS011;26543;51.976;4.616;2022-10-18T07:02:36;5.80;;;4.03;;
38196;SDS011;26543;51.976;4.616;2022-10-18T07:05:05;5.63;;;3.17;;
38196;SDS011;26543;51.976;4.616;2022-10-18T07:07:33;5.22;;;3.40;;
38196;SDS011;26543;51.976;4.616;2022-10-18T07:09:58;6.63;;;3.50;;
38196;SDS011;26543;51.976;4.616;2022-10-18T07:12:24;5.50;;;3.65;;
38196;SDS011;26543;51.976;4.616;2022-10-18T07:14:49;5.25;;;3.33;;
38196;SDS011;26543;51.976;4.616;2022-10-18T07:17:14;4.68;;;2.85;;
38196;SDS011;26543;51.976;4.616;2022-10-18T07:19:40;4.47;;;2.45;;
38196;SDS011;26543;51.976;4.616;2022-10-18T07:22:05;4.20;;;2.80;;
38196;SDS011;26543;51.976;4.616;2022-10-18T07:24:31;4.88;;;3.08;;
38196;SDS011;26543;51.976;4.616;2022-10-18T07:26:56;3.88;;;2.60;;
38196;SDS011;26543;51.976;4.616;2022-10-18T07:29:21;4.95;;;2.90;;
38196;SDS011;26543;51.976;4.616;2022-10-18T07:31:47;6.03;;;2.97;;
38196;SDS011;26543;51.976;4.616;2022-10-18T07:34:12;7.28;;;3.63;;
38196;SDS011;26543;51.976;4.616;2022-10-18T07:36:38;5.35;;;3.05;;
38196;SDS011;26543;51.976;4.616;2022-10-18T07:39:04;3.75;;;2.63;;
38196;SDS011;26543;51.976;4.616;2022-10-18T07:41:30;7.05;;;3.00;;
38196;SDS011;26543;51.976;4.616;2022-10-18T07:43:59;4.30;;;3.30;;
38196;SDS011;26543;51.976;4.616;2022-10-18T07:46:26;6.75;;;2.95;;
38196;SDS011;26543;51.976;4.616;2022-10-18T07:48:51;4.82;;;2.92;;
38196;SDS011;26543;51.976;4.616;2022-10-18T07:51:17;7.70;;;3.50;;
38196;SDS011;26543;51.976;4.616;2022-10-18T07:53:44;5.60;;;3.40;;
38196;SDS011;26543;51.976;4.616;2022-10-18T07:56:11;3.83;;;2.92;;
38196;SDS011;26543;51.976;4.616;2022-10-18T07:58:44;4.38;;;3.13;;
38196;SDS011;26543;51.976;4.616;2022-10-18T08:01:11;4.88;;;3.17;;
38196;SDS011;26543;51.976;4.616;2022-10-18T08:03:38;4.65;;;3.13;;
38196;SDS011;26543;51.976;4.616;2022-10-18T08:06:04;4.15;;;3.40;;
38196;SDS011;26543;51.976;4.616;2022-10-18T08:08:32;4.22;;;3.75;;
38196;SDS011;26543;51.976;4.616;2022-10-18T08:11:02;5.40;;;3.92;;
38196;SDS011;26543;51.976;4.616;2022-10-18T08:13:35;5.00;;;3.47;;
38196;SDS011;26543;51.976;4.616;2022-10-18T08:16:18;4.63;;;3.85;;
38196;SDS011;26543;51.976;4.616;2022-10-18T08:21:12;5.90;;;2.83;;
38196;SDS011;26543;51.976;4.616;2022-10-18T08:23:40;3.20;;;2.85;;
38196;SDS011;26543;51.976;4.616;2022-10-18T08:26:07;7.70;;;2.65;;
38196;SDS011;26543;51.976;4.616;2022-10-18T08:28:38;3.63;;;2.65;;
38196;SDS011;26543;51.976;4.616;2022-10-18T08:31:05;7.05;;;3.33;;
38196;SDS011;26543;51.976;4.616;2022-10-18T08:33:32;4.28;;;2.03;;
38196;SDS011;26543;51.976;4.616;2022-10-18T08:35:59;2.88;;;1.45;;
38196;SDS011;26543;51.976;4.616;2022-10-18T08:38:28;4.90;;;2.53;;
38196;SDS011;26543;51.976;4.616;2022-10-18T08:40:55;4.38;;;2.55;;
38196;SDS011;26543;51.976;4.616;2022-10-18T08:46:06;7.65;;;2.45;;
38196;SDS011;26543;51.976;4.616;2022-10-18T08:48:39;3.53;;;2.10;;
38196;SDS011;26543;51.976;4.616;2022-10-18T08:51:21;4.65;;;2.00;;
38196;SDS011;26543;51.976;4.616;2022-10-18T08:54:11;4.55;;;1.60;;
38196;SDS011;26543;51.976;4.616;2022-10-18T08:56:38;3.47;;;1.55;;
38196;SDS011;26543;51.976;4.616;2022-10-18T08:59:09;2.65;;;1.65;;
38196;SDS011;26543;51.976;4.616;2022-10-18T09:07:21;4.32;;;1.90;;
38196;SDS011;26543;51.976;4.616;2022-10-18T09:13:02;3.33;;;1.15;;
38196;SDS011;26543;51.976;4.616;2022-10-18T09:16:09;3.50;;;1.75;;
38196;SDS011;26543;51.976;4.616;2022-10-18T09:18:49;2.53;;;0.82;;
38196;SDS011;26543;51.976;4.616;2022-10-18T09:21:43;2.85;;;0.32;;
38196;SDS011;26543;51.976;4.616;2022-10-18T09:24:13;1.55;;;0.47;;
38196;SDS011;26543;51.976;4.616;2022-10-18T09:26:57;2.17;;;0.50;;
38196;SDS011;26543;51.976;4.616;2022-10-18T09:29:35;5.72;;;0.90;;
38196;SDS011;26543;51.976;4.616;2022-10-18T09:34:55;1.90;;;0.50;;
38196;SDS011;26543;51.976;4.616;2022-10-18T09:37:26;0.38;;;0.22;;
38196;SDS011;26543;51.976;4.616;2022-10-18T09:40:10;3.35;;;0.70;;
38196;SDS011;26543;51.976;4.616;2022-10-18T09:42:48;0.98;;;0.40;;
38196;SDS011;26543;51.976;4.616;2022-10-18T09:45:24;1.80;;;0.77;;
38196;SDS011;26543;51.976;4.616;2022-10-18T09:48:02;2.92;;;0.70;;
38196;SDS011;26543;51.976;4.616;2022-10-18T09:50:56;1.75;;;0.38;;
38196;SDS011;26543;51.976;4.616;2022-10-18T09:56:14;1.02;;;0.55;;
38196;SDS011;26543;51.976;4.616;2022-10-18T09:58:45;3.75;;;0.82;;
38196;SDS011;26543;51.976;4.616;2022-10-18T10:01:17;8.63;;;0.80;;
38196;SDS011;26543;51.976;4.616;2022-10-18T10:03:46;1.63;;;0.57;;
38196;SDS011;26543;51.976;4.616;2022-10-18T10:08:48;1.92;;;0.88;;
38196;SDS011;26543;51.976;4.616;2022-10-18T10:14:14;1.17;;;0.50;;
38196;SDS011;26543;51.976;4.616;2022-10-18T10:16:48;1.85;;;0.55;;
38196;SDS011;26543;51.976;4.616;2022-10-18T10:19:19;2.38;;;0.50;;
38196;SDS011;26543;51.976;4.616;2022-10-18T10:21:59;2.05;;;0.57;;
38196;SDS011;26543;51.976;4.616;2022-10-18T10:24:33;4.18;;;0.75;;
38196;SDS011;26543;51.976;4.616;2022-10-18T10:27:00;2.88;;;0.50;;
38196;SDS011;26543;51.976;4.616;2022-10-18T10:32:10;5.47;;;0.98;;
38196;SDS011;26543;51.976;4.616;2022-10-18T10:34:40;3.03;;;0.52;;
38196;SDS011;26543;51.976;4.616;2022-10-18T10:40:04;5.68;;;0.88;;
38196;SDS011;26543;51.976;4.616;2022-10-18T10:42:50;3.40;;;0.77;;
38196;SDS011;26543;51.976;4.616;2022-10-18T10:45:19;2.80;;;0.75;;
38196;SDS011;26543;51.976;4.616;2022-10-18T10:47:47;1.55;;;0.60;;
38196;SDS011;26543;51.976;4.616;2022-10-18T10:50:20;2.25;;;0.70;;
38196;SDS011;26543;51.976;4.616;2022-10-18T10:52:48;1.20;;;0.43;;
38196;SDS011;26543;51.976;4.616;2022-10-18T10:55:16;1.75;;;0.20;;
38196;SDS011;26543;51.976;4.616;2022-10-18T10:57:54;1.65;;;0.52;;
38196;SDS011;26543;51.976;4.616;2022-10-18T11:03:05;2.70;;;0.60;;
38196;SDS011;26543;51.976;4.616;2022-10-18T11:06:09;1.23;;;0.38;;
38196;SDS011;26543;51.976;4.616;2022-10-18T11:08:51;3.35;;;0.63;;
38196;SDS011;26543;51.976;4.616;2022-10-18T11:11:25;3.17;;;0.38;;
38196;SDS011;26543;51.976;4.616;2022-10-18T11:13:57;2.38;;;0.47;;
38196;SDS011;26543;51.976;4.616;2022-10-18T11:16:50;3.40;;;0.65;;
38196;SDS011;26543;51.976;4.616;2022-10-18T11:19:30;3.35;;;0.50;;
38196;SDS011;26543;51.976;4.616;2022-10-18T11:22:03;2.72;;;0.50;;
38196;SDS011;26543;51.976;4.616;2022-10-18T11:24:31;1.40;;;0.20;;
38196;SDS011;26543;51.976;4.616;2022-10-18T11:27:05;2.65;;;0.57;;
38196;SDS011;26543;51.976;4.616;2022-10-18T11:29:42;1.77;;;0.40;;
38196;SDS011;26543;51.976;4.616;2022-10-18T11:37:52;1.92;;;0.25;;
38196;SDS011;26543;51.976;4.616;2022-10-18T11:53:56;1.25;;;0.17;;
38196;SDS011;26543;51.976;4.616;2022-10-18T12:04:15;2.33;;;0.53;;
38196;SDS011;26543;51.976;4.616;2022-10-18T12:06:44;1.33;;;0.50;;
38196;SDS011;26543;51.976;4.616;2022-10-18T12:09:27;1.17;;;0.40;;
38196;SDS011;26543;51.976;4.616;2022-10-18T12:14:40;1.15;;;0.25;;
38196;SDS011;26543;51.976;4.616;2022-10-18T12:17:20;1.30;;;0.22;;
38196;SDS011;26543;51.976;4.616;2022-10-18T12:19:52;1.98;;;0.30;;
38196;SDS011;26543;51.976;4.616;2022-10-18T12:22:34;1.00;;;0.30;;
38196;SDS011;26543;51.976;4.616;2022-10-18T12:25:02;0.32;;;0.13;;
38196;SDS011;26543;51.976;4.616;2022-10-18T12:27:35;1.70;;;0.25;;
38196;SDS011;26543;51.976;4.616;2022-10-18T12:30:16;0.32;;;0.20;;
38196;SDS011;26543;51.976;4.616;2022-10-18T12:32:47;0.55;;;0.28;;
38196;SDS011;26543;51.976;4.616;2022-10-18T12:35:14;0.68;;;0.15;;
38196;SDS011;26543;51.976;4.616;2022-10-18T12:38:04;1.48;;;0.10;;
38196;SDS011;26543;51.976;4.616;2022-10-18T12:40:53;2.10;;;0.30;;
38196;SDS011;26543;51.976;4.616;2022-10-18T12:43:23;2.38;;;0.30;;
38196;SDS011;26543;51.976;4.616;2022-10-18T12:45:55;0.80;;;0.17;;
38196;SDS011;26543;51.976;4.616;2022-10-18T12:48:27;2.40;;;0.40;;
38196;SDS011;26543;51.976;4.616;2022-10-18T12:53:29;1.15;;;0.32;;
38196;SDS011;26543;51.976;4.616;2022-10-18T12:56:16;1.48;;;0.40;;
38196;SDS011;26543;51.976;4.616;2022-10-18T13:09:29;0.65;;;0.20;;
38196;SDS011;26543;51.976;4.616;2022-10-18T13:15:11;0.82;;;0.28;;
38196;SDS011;26543;51.976;4.616;2022-10-18T13:33:54;1.85;;;0.45;;
38196;SDS011;26543;51.976;4.616;2022-10-18T13:36:40;3.20;;;0.30;;
38196;SDS011;26543;51.976;4.616;2022-10-18T13:39:15;0.32;;;0.20;;
38196;SDS011;26543;51.976;4.616;2022-10-18T13:49:43;2.97;;;0.22;;
38196;SDS011;26543;51.976;4.616;2022-10-18T14:06:48;1.25;;;0.40;;
38196;SDS011;26543;51.976;4.616;2022-10-18T14:09:17;6.80;;;0.52;;
38196;SDS011;26543;51.976;4.616;2022-10-18T14:16:49;1.80;;;0.40;;
38196;SDS011;26543;51.976;4.616;2022-10-18T14:19:49;1.77;;;0.47;;
38196;SDS011;26543;51.976;4.616;2022-10-18T14:22:25;3.03;;;0.63;;
38196;SDS011;26543;51.976;4.616;2022-10-18T14:24:55;0.75;;;0.25;;
38196;SDS011;26543;51.976;4.616;2022-10-18T14:27:30;0.80;;;0.40;;
38196;SDS011;26543;51.976;4.616;2022-10-18T14:30:06;1.45;;;0.30;;
38196;SDS011;26543;51.976;4.616;2022-10-18T14:32:33;1.30;;;0.60;;
38196;SDS011;26543;51.976;4.616;2022-10-18T14:34:59;1.05;;;0.38;;
38196;SDS011;26543;51.976;4.616;2022-10-18T14:37:34;0.80;;;0.43;;
38196;SDS011;26543;51.976;4.616;2022-10-18T14:40:03;0.68;;;0.45;;
38196;SDS011;26543;51.976;4.616;2022-10-18T14:42:29;0.70;;;0.15;;
38196;SDS011;26543;51.976;4.616;2022-10-18T14:44:55;1.85;;;0.47;;
38196;SDS011;26543;51.976;4.616;2022-10-18T14:49:47;0.85;;;0.28;;
38196;SDS011;26543;51.976;4.616;2022-10-18T14:52:17;4.65;;;0.88;;
38196;SDS011;26543;51.976;4.616;2022-10-18T14:54:44;3.38;;;0.75;;
38196;SDS011;26543;51.976;4.616;2022-10-18T14:57:21;1.98;;;0.52;;
38196;SDS011;26543;51.976;4.616;2022-10-18T14:59:52;1.67;;;0.50;;
38196;SDS011;26543;51.976;4.616;2022-10-18T15:02:23;2.10;;;0.90;;
38196;SDS011;26543;51.976;4.616;2022-10-18T15:04:53;4.03;;;0.55;;
38196;SDS011;26543;51.976;4.616;2022-10-18T15:07:22;2.22;;;0.40;;
38196;SDS011;26543;51.976;4.616;2022-10-18T15:09:49;2.33;;;0.68;;
38196;SDS011;26543;51.976;4.616;2022-10-18T15:12:15;1.48;;;0.45;;
38196;SDS011;26543;51.976;4.616;2022-10-18T15:14:42;1.58;;;0.25;;
38196;SDS011;26543;51.976;4.616;2022-10-18T15:17:13;1.75;;;0.60;;
38196;SDS011;26543;51.976;4.616;2022-10-18T15:19:52;0.40;;;0.20;;
38196;SDS011;26543;51.976;4.616;2022-10-18T15:22:36;1.58;;;0.50;;
38196;SDS011;26543;51.976;4.616;2022-10-18T15:25:23;1.33;;;0.57;;
38196;SDS011;26543;51.976;4.616;2022-10-18T15:27:58;1.35;;;0.60;;
38196;SDS011;26543;51.976;4.616;2022-10-18T15:30:25;2.03;;;0.45;;
38196;SDS011;26543;51.976;4.616;2022-10-18T15:33:00;1.33;;;0.57;;
38196;SDS011;26543;51.976;4.616;2022-10-18T15:35:32;2.63;;;0.50;;
38196;SDS011;26543;51.976;4.616;2022-10-18T15:38:12;1.65;;;0.40;;
38196;SDS011;26543;51.976;4.616;2022-10-18T15:40:56;4.00;;;0.60;;
38196;SDS011;26543;51.976;4.616;2022-10-18T15:45:54;3.33;;;0.60;;
38196;SDS011;26543;51.976;4.616;2022-10-18T15:48:26;2.33;;;0.88;;
38196;SDS011;26543;51.976;4.616;2022-10-18T15:51:01;0.88;;;0.30;;
38196;SDS011;26543;51.976;4.616;2022-10-18T15:53:33;1.70;;;0.40;;
38196;SDS011;26543;51.976;4.616;2022-10-18T15:56:09;0.85;;;0.43;;
38196;SDS011;26543;51.976;4.616;2022-10-18T15:58:49;1.05;;;0.30;;
38196;SDS011;26543;51.976;4.616;2022-10-18T16:01:21;2.35;;;0.50;;
38196;SDS011;26543;51.976;4.616;2022-10-18T16:03:53;2.03;;;0.60;;
38196;SDS011;26543;51.976;4.616;2022-10-18T16:06:19;1.52;;;0.30;;
38196;SDS011;26543;51.976;4.616;2022-10-18T16:08:46;2.65;;;0.68;;
38196;SDS011;26543;51.976;4.616;2022-10-18T16:11:20;1.48;;;0.50;;
38196;SDS011;26543;51.976;4.616;2022-10-18T16:13:47;1.52;;;0.50;;
38196;SDS011;26543;51.976;4.616;2022-10-18T16:16:14;0.75;;;0.40;;
38196;SDS011;26543;51.976;4.616;2022-10-18T16:18:46;2.92;;;0.82;;
38196;SDS011;26543;51.976;4.616;2022-10-18T16:21:14;2.38;;;0.80;;
38196;SDS011;26543;51.976;4.616;2022-10-18T16:26:07;2.50;;;0.90;;
38196;SDS011;26543;51.976;4.616;2022-10-18T16:28:35;0.98;;;0.40;;
38196;SDS011;26543;51.976;4.616;2022-10-18T16:31:03;2.15;;;0.70;;
38196;SDS011;26543;51.976;4.616;2022-10-18T16:33:28;3.35;;;0.38;;
38196;SDS011;26543;51.976;4.616;2022-10-18T16:35:55;3.95;;;0.45;;
38196;SDS011;26543;51.976;4.616;2022-10-18T16:38:31;5.22;;;0.70;;
38196;SDS011;26543;51.976;4.616;2022-10-18T16:41:00;1.67;;;0.50;;
38196;SDS011;26543;51.976;4.616;2022-10-18T16:43:27;3.50;;;0.40;;
38196;SDS011;26543;51.976;4.616;2022-10-18T16:45:52;0.68;;;0.38;;
38196;SDS011;26543;51.976;4.616;2022-10-18T16:48:19;1.80;;;0.57;;
38196;SDS011;26543;51.976;4.616;2022-10-18T16:50:47;1.00;;;0.38;;
38196;SDS011;26543;51.976;4.616;2022-10-18T16:53:13;1.67;;;0.55;;
38196;SDS011;26543;51.976;4.616;2022-10-18T16:55:38;4.03;;;0.60;;
38196;SDS011;26543;51.976;4.616;2022-10-18T16:58:05;3.88;;;0.55;;
38196;SDS011;26543;51.976;4.616;2022-10-18T17:00:31;9.68;;;1.33;;
38196;SDS011;26543;51.976;4.616;2022-10-18T17:02:57;1.85;;;0.93;;
38196;SDS011;26543;51.976;4.616;2022-10-18T17:05:23;0.93;;;0.60;;
38196;SDS011;26543;51.976;4.616;2022-10-18T17:07:48;1.08;;;0.52;;
38196;SDS011;26543;51.976;4.616;2022-10-18T17:10:15;3.33;;;0.80;;
38196;SDS011;26543;51.976;4.616;2022-10-18T17:12:43;1.35;;;0.68;;
38196;SDS011;26543;51.976;4.616;2022-10-18T17:15:09;3.35;;;0.88;;
38196;SDS011;26543;51.976;4.616;2022-10-18T17:17:36;6.93;;;1.02;;
38196;SDS011;26543;51.976;4.616;2022-10-18T17:20:03;0.98;;;0.63;;
38196;SDS011;26543;51.976;4.616;2022-10-18T17:22:30;2.50;;;1.15;;
38196;SDS011;26543;51.976;4.616;2022-10-18T17:24:55;4.63;;;0.60;;
38196;SDS011;26543;51.976;4.616;2022-10-18T17:27:21;3.15;;;1.20;;
38196;SDS011;26543;51.976;4.616;2022-10-18T17:29:47;2.35;;;1.08;;
38196;SDS011;26543;51.976;4.616;2022-10-18T17:32:12;1.48;;;0.60;;
38196;SDS011;26543;51.976;4.616;2022-10-18T17:34:40;1.58;;;1.10;;
38196;SDS011;26543;51.976;4.616;2022-10-18T17:37:06;1.08;;;0.52;;
38196;SDS011;26543;51.976;4.616;2022-10-18T17:39:31;1.55;;;0.85;;
38196;SDS011;26543;51.976;4.616;2022-10-18T17:41:57;2.78;;;1.08;;